Time;durP1;ratioP1;P1;durP2;ratioP2;P2;SDS_P1;SDS_P2;PMS_P1;PMS_P2;Temp;Humidity;BMP_temperature;BMP_pressure;BME280_temperature;BME280_humidity;BME280_pressure;Samples;Min_cycle;Max_cycle;Signal;HPM_P1;HPM_P2
2022/09/27 00:00:44;;;;;;;4.45;3.85;;;;;;;12.74;100.00;98679.91;1727503;80;21913;-51
2022/09/27 00:03:12;;;;;;;7.25;3.33;;;;;;;12.73;100.00;98680.88;1729914;80;21415;-51
2022/09/27 00:05:40;;;;;;;3.60;2.60;;;;;;;12.71;100.00;98681.47;1729208;80;21514;-51
2022/09/27 00:08:07;;;;;;;4.03;2.00;;;;;;;12.67;100.00;98669.67;1730699;80;21072;-51
2022/09/27 00:10:33;;;;;;;3.27;1.55;;;;;;;12.64;100.00;98669.41;1732313;80;21292;-50
2022/09/27 00:13:00;;;;;;;2.87;2.33;;;;;;;12.63;100.00;98662.77;1728690;80;21785;-51
2022/09/27 00:15:26;;;;;;;4.42;2.47;;;;;;;12.62;100.00;98663.73;1721051;80;21011;-51
2022/09/27 00:17:54;;;;;;;2.00;1.90;;;;;;;12.60;100.00;98651.70;1715492;81;21109;-51
2022/09/27 00:20:20;;;;;;;3.65;1.95;;;;;;;12.59;100.00;98659.41;1717484;81;21053;-51
2022/09/27 00:22:47;;;;;;;2.50;1.65;;;;;;;12.57;100.00;98658.69;1723526;81;21050;-51
2022/09/27 00:25:15;;;;;;;5.05;2.12;;;;;;;12.59;100.00;98662.63;1723609;81;21859;-51
2022/09/27 00:27:41;;;;;;;1.92;1.82;;;;;;;12.59;100.00;98651.31;1723863;81;21519;-51
2022/09/27 00:30:09;;;;;;;2.50;1.65;;;;;;;12.58;100.00;98649.63;1721078;81;21337;-50
2022/09/27 00:32:37;;;;;;;7.35;2.10;;;;;;;12.57;100.00;98638.93;1710696;81;21054;-50
2022/09/27 00:35:04;;;;;;;3.83;1.75;;;;;;;12.58;100.00;98636.61;1715424;81;21062;-51
2022/09/27 00:39:18;;;;;;;5.13;2.80;;;;;;;12.58;100.00;98636.13;1792259;77;23644;-49
2022/09/27 00:41:45;;;;;;;3.33;2.90;;;;;;;12.57;100.00;98629.48;1764351;78;21076;-45
2022/09/27 00:44:32;;;;;;;3.58;3.02;;;;;;;12.57;100.00;98620.90;1764707;79;21163;-47
2022/09/27 00:47:07;;;;;;;3.08;2.80;;;;;;;12.58;100.00;98625.33;1766781;79;21823;-46
2022/09/27 00:49:56;;;;;;;3.67;3.33;;;;;;;12.58;100.00;98624.46;1769492;79;21229;-49
2022/09/27 00:52:34;;;;;;;4.80;2.52;;;;;;;12.57;100.00;98625.44;1764944;79;20914;-46
2022/09/27 00:55:11;;;;;;;2.33;2.12;;;;;;;12.55;100.00;98626.89;1771602;79;20899;-49
2022/09/27 00:57:38;;;;;;;6.20;2.02;;;;;;;12.54;100.00;98617.06;1767163;79;21248;-45
2022/09/27 01:00:08;;;;;;;4.22;2.33;;;;;;;12.53;100.00;98611.77;1769039;78;21025;-45
2022/09/27 01:02:41;;;;;;;2.33;2.15;;;;;;;12.51;100.00;98608.70;1765554;78;21096;-45
2022/09/27 01:05:08;;;;;;;2.15;2.02;;;;;;;12.53;100.00;98609.08;1767601;78;21109;-46
2022/09/27 01:07:35;;;;;;;2.17;1.92;;;;;;;12.55;100.00;98610.70;1768117;78;21704;-45
2022/09/27 01:10:01;;;;;;;8.78;2.72;;;;;;;12.56;100.00;98594.88;1768142;79;21053;-45
2022/09/27 01:12:34;;;;;;;2.33;2.00;;;;;;;12.58;100.00;98589.38;1765191;78;21041;-48
2022/09/27 01:15:12;;;;;;;2.42;1.77;;;;;;;12.58;100.00;98592.94;1766697;78;21555;-49
2022/09/27 01:18:01;;;;;;;2.22;2.12;;;;;;;12.56;100.00;98590.83;1704515;81;21138;-49
2022/09/27 01:21:16;;;;;;;2.75;1.95;;;;;;;12.55;100.00;98586.41;1712762;81;21061;-49
2022/09/27 01:24:39;;;;;;;2.52;2.20;;;;;;;12.54;100.00;98584.67;1714462;81;21148;-49
2022/09/27 01:27:33;;;;;;;2.77;1.87;;;;;;;12.54;100.00;98573.88;1710670;81;21073;-46
2022/09/27 01:30:20;;;;;;;3.67;2.22;;;;;;;12.55;100.00;98574.25;1684283;82;21150;-45
2022/09/27 01:33:09;;;;;;;2.50;2.30;;;;;;;12.56;100.00;98573.77;1712609;82;21073;-46
2022/09/27 01:35:47;;;;;;;2.60;2.30;;;;;;;12.57;100.00;98572.80;1701442;81;21650;-47
2022/09/27 01:38:22;;;;;;;3.25;2.00;;;;;;;12.57;100.00;98568.75;1688182;82;21879;-45
2022/09/27 01:41:05;;;;;;;3.27;2.37;;;;;;;12.57;100.00;98569.61;1749944;79;21069;-48
2022/09/27 01:43:51;;;;;;;4.17;1.67;;;;;;;12.57;100.00;98566.91;1747871;79;21097;-48
2022/09/27 01:46:30;;;;;;;3.80;2.87;;;;;;;12.56;100.00;98561.14;1716895;80;21298;-49
2022/09/27 01:49:13;;;;;;;1.95;1.85;;;;;;;12.60;100.00;98550.46;1676984;82;21107;-46
2022/09/27 01:51:45;;;;;;;2.15;2.02;;;;;;;12.60;100.00;98550.46;1751868;79;21768;-49
2022/09/27 01:54:18;;;;;;;1.95;1.75;;;;;;;12.59;100.00;98545.20;1752146;79;21054;-46
2022/09/27 01:56:54;;;;;;;4.47;1.90;;;;;;;12.58;100.00;98538.08;1744699;80;21122;-49
2022/09/27 01:59:30;;;;;;;3.33;2.52;;;;;;;12.55;100.00;98528.85;1752912;79;21509;-46
2022/09/27 02:02:01;;;;;;;5.40;2.37;;;;;;;12.58;100.00;98533.55;1751258;79;21124;-49
2022/09/27 02:04:31;;;;;;;2.90;2.65;;;;;;;12.58;100.00;98528.15;1718207;79;21450;-48
2022/09/27 02:07:16;;;;;;;6.20;3.42;;;;;;;12.56;100.00;98532.80;1735162;80;21108;-45
2022/09/27 02:09:57;;;;;;;4.08;3.62;;;;;;;12.55;100.00;98536.47;1752254;80;21524;-47
2022/09/27 02:12:30;;;;;;;5.70;3.52;;;;;;;12.53;100.00;98530.31;1751252;79;21087;-46
2022/09/27 02:15:01;;;;;;;3.25;2.62;;;;;;;12.49;100.00;98527.00;1754818;79;21124;-45
2022/09/27 02:17:57;;;;;;;3.25;2.62;;;;;;;12.46;100.00;98528.57;1711464;81;21311;-46
2022/09/27 02:20:41;;;;;;;2.75;2.55;;;;;;;12.45;100.00;98532.24;1753666;79;21101;-46
2022/09/27 02:23:22;;;;;;;2.77;2.58;;;;;;;12.44;100.00;98526.95;1749811;79;21501;-46
2022/09/27 02:26:01;;;;;;;4.35;3.77;;;;;;;12.43;100.00;98523.39;1741749;80;21038;-46
2022/09/27 02:28:33;;;;;;;4.65;4.33;;;;;;;12.44;100.00;98524.26;1754168;79;21041;-47
2022/09/27 02:30:59;;;;;;;4.97;4.45;;;;;;;12.44;100.00;98516.16;1754477;80;21107;-48
2022/09/27 02:33:42;;;;;;;4.35;3.72;;;;;;;12.45;100.00;98512.48;1756049;79;21458;-46
2022/09/27 02:36:08;;;;;;;7.45;4.17;;;;;;;12.44;100.00;98511.62;1748232;79;20937;-46
2022/09/27 02:38:34;;;;;;;4.83;4.25;;;;;;;12.46;100.00;98519.12;1752563;79;21041;-47
2022/09/27 02:41:01;;;;;;;5.65;5.10;;;;;;;12.47;100.00;98518.64;1743651;80;21596;-45
2022/09/27 02:43:30;;;;;;;5.33;4.42;;;;;;;12.47;100.00;98509.20;1745580;80;21099;-48
2022/09/27 02:46:42;;;;;;;4.55;4.12;;;;;;;12.45;100.00;98499.86;1752151;80;21485;-45
2022/09/27 02:49:38;;;;;;;4.85;3.95;;;;;;;12.43;100.00;98498.24;1749246;80;21045;-47
2022/09/27 02:52:39;;;;;;;5.90;4.95;;;;;;;12.43;100.00;98501.80;1740808;80;21508;-48
2022/09/27 02:55:38;;;;;;;5.42;5.05;;;;;;;12.43;100.00;98495.05;1749402;80;21343;-49
2022/09/27 02:58:31;;;;;;;6.15;5.50;;;;;;;12.45;100.00;98502.56;1722069;79;21103;-47
2022/09/27 03:01:28;;;;;;;6.05;5.45;;;;;;;12.46;100.00;98508.33;1739719;80;21479;-47
2022/09/27 03:04:08;;;;;;;5.25;4.65;;;;;;;12.47;100.00;98488.95;1684075;83;21062;-46
2022/09/27 03:06:35;;;;;;;4.90;4.50;;;;;;;12.47;100.00;98493.00;1749067;80;20888;-46
2022/09/27 03:09:01;;;;;;;5.20;4.75;;;;;;;12.48;100.00;98492.03;1746971;80;20954;-47
2022/09/27 03:11:28;;;;;;;4.62;4.22;;;;;;;12.48;100.00;98485.28;1741130;80;21111;-45
2022/09/27 03:13:54;;;;;;;5.67;4.25;;;;;;;12.47;100.00;98490.30;1750632;80;21757;-46
2022/09/27 03:16:23;;;;;;;5.67;4.50;;;;;;;12.48;100.00;98489.33;1714284;80;21438;-46
2022/09/27 03:19:08;;;;;;;6.90;5.08;;;;;;;12.48;100.00;98486.63;1749286;80;21042;-46
2022/09/27 03:21:48;;;;;;;5.45;4.72;;;;;;;12.47;100.00;98488.47;1739122;80;21398;-45
2022/09/27 03:24:15;;;;;;;5.62;5.22;;;;;;;12.46;100.00;98484.05;1755852;80;21085;-45
2022/09/27 03:26:41;;;;;;;5.45;5.12;;;;;;;12.47;100.00;98484.91;1671904;83;21121;-47
2022/09/27 03:29:10;;;;;;;6.97;6.17;;;;;;;12.48;100.00;98490.67;1698135;82;21141;-49
2022/09/27 03:31:38;;;;;;;6.83;6.25;;;;;;;12.49;100.00;98485.66;1744550;79;20914;-46
2022/09/27 03:34:06;;;;;;;10.05;7.60;;;;;;;12.48;100.00;98478.53;1680308;83;21547;-48
2022/09/27 03:36:33;;;;;;;8.58;7.53;;;;;;;12.46;100.00;98478.64;1748136;80;21075;-50
2022/09/27 03:39:00;;;;;;;7.87;7.10;;;;;;;12.47;100.00;98483.55;1711274;80;20897;-47
2022/09/27 03:41:26;;;;;;;10.85;7.85;;;;;;;12.48;100.00;98483.45;1732850;80;20909;-46
2022/09/27 03:43:56;;;;;;;8.28;7.58;;;;;;;12.50;100.00;98477.94;1731619;81;21371;-46
2022/09/27 03:46:21;;;;;;;12.30;7.90;;;;;;;12.50;100.00;98471.19;1730524;81;20940;-46
2022/09/27 03:48:47;;;;;;;9.65;8.03;;;;;;;12.48;100.00;98472.65;1740794;80;21065;-49
2022/09/27 03:51:14;;;;;;;8.10;7.40;;;;;;;12.46;100.00;98469.69;1738590;81;20920;-46
2022/09/27 03:53:41;;;;;;;12.68;8.15;;;;;;;12.43;100.00;98466.72;1726743;81;21102;-45
2022/09/27 03:56:08;;;;;;;9.80;8.30;;;;;;;12.44;100.00;98470.28;1729711;80;21087;-49
2022/09/27 03:58:36;;;;;;;15.15;8.93;;;;;;;12.43;100.00;98465.38;1728508;80;21394;-46
2022/09/27 04:01:03;;;;;;;8.05;7.35;;;;;;;12.44;100.00;98468.93;1719061;81;22541;-47
2022/09/27 04:03:30;;;;;;;8.98;8.05;;;;;;;12.44;100.00;98465.75;1667989;83;21781;-49
2022/09/27 04:06:16;;;;;;;9.18;8.28;;;;;;;12.46;100.00;98466.98;1670829;83;21080;-49
2022/09/27 04:08:44;;;;;;;10.93;8.80;;;;;;;12.44;100.00;98456.79;1718211;80;21456;-49
2022/09/27 04:11:12;;;;;;;10.20;9.10;;;;;;;12.46;100.00;98461.10;1724418;80;21111;-49
2022/09/27 04:13:40;;;;;;;8.93;8.23;;;;;;;12.48;100.00;98462.34;1729729;80;21135;-49
2022/09/27 04:16:07;;;;;;;9.60;8.70;;;;;;;12.49;100.00;98470.81;1726805;80;21074;-49
2022/09/27 04:18:51;;;;;;;13.53;9.08;;;;;;;12.49;100.00;98474.86;1662012;83;21056;-49
2022/09/27 04:21:34;;;;;;;10.80;9.80;;;;;;;12.50;100.00;98467.14;1588564;88;21087;-49
2022/09/27 04:24:01;;;;;;;9.65;8.85;;;;;;;12.50;100.00;98464.44;1649112;83;21153;-49
2022/09/27 04:26:29;;;;;;;9.83;9.05;;;;;;;12.51;100.00;98463.44;1699448;81;21261;-49
2022/09/27 04:29:03;;;;;;;11.73;8.55;;;;;;;12.50;100.00;98460.39;1722703;80;21127;-49
2022/09/27 04:31:31;;;;;;;10.00;9.00;;;;;;;12.51;100.00;98453.98;1728251;80;21067;-49
2022/09/27 04:34:04;;;;;;;10.48;9.38;;;;;;;12.51;100.00;98452.64;1673431;80;21032;-49
2022/09/27 04:36:33;;;;;;;13.58;9.38;;;;;;;12.53;100.00;98453.39;1734121;80;21130;-49
2022/09/27 04:39:06;;;;;;;10.72;9.53;;;;;;;12.54;100.00;98448.37;1739631;79;22150;-49
2022/09/27 04:41:35;;;;;;;10.28;9.50;;;;;;;12.54;100.00;98441.62;1764679;79;21042;-49
2022/09/27 04:44:02;;;;;;;10.85;9.55;;;;;;;12.55;100.00;98443.83;1760768;79;21108;-49
2022/09/27 04:46:32;;;;;;;12.05;10.90;;;;;;;12.56;100.00;98442.86;1758779;79;21144;-50
2022/09/27 04:49:00;;;;;;;11.28;10.30;;;;;;;12.56;100.00;98436.11;1763359;79;21049;-50
2022/09/27 04:51:28;;;;;;;11.00;9.88;;;;;;;12.57;100.00;98434.64;1764526;79;21540;-50
2022/09/27 04:53:56;;;;;;;11.63;10.60;;;;;;;12.56;100.00;98427.52;1764218;79;21023;-49
2022/09/27 04:56:23;;;;;;;10.98;10.00;;;;;;;12.56;100.00;98420.77;1760473;79;21056;-50
2022/09/27 04:58:50;;;;;;;12.10;10.63;;;;;;;12.56;100.00;98424.83;1764113;79;21087;-49
2022/09/27 05:01:17;;;;;;;14.23;11.05;;;;;;;12.56;100.00;98408.63;1765786;79;21116;-51
2022/09/27 05:03:49;;;;;;;12.07;10.88;;;;;;;12.57;100.00;98409.49;1692563;82;21147;-50
2022/09/27 05:06:15;;;;;;;14.43;12.00;;;;;;;12.58;100.00;98403.98;1707150;81;21099;-48
2022/09/27 05:08:44;;;;;;;13.78;12.47;;;;;;;12.59;100.00;98407.02;1708305;82;21213;-50
2022/09/27 05:11:12;;;;;;;14.58;11.60;;;;;;;12.62;100.00;98406.80;1696594;82;21069;-50
2022/09/27 05:13:40;;;;;;;11.08;9.98;;;;;;;12.62;100.00;98402.75;1703683;82;21063;-49
2022/09/27 05:16:07;;;;;;;14.23;12.00;;;;;;;12.64;100.00;98409.38;1671802;82;21291;-50
2022/09/27 05:18:42;;;;;;;15.03;11.80;;;;;;;12.66;100.00;98407.43;1720223;80;21428;-49
2022/09/27 05:21:20;;;;;;;13.78;12.47;;;;;;;12.66;100.00;98404.73;1623890;85;21132;-50
2022/09/27 05:23:46;;;;;;;13.18;11.85;;;;;;;12.68;100.00;98400.05;1726916;80;21103;-49
2022/09/27 05:26:13;;;;;;;15.65;12.33;;;;;;;12.70;100.00;98402.14;1697801;80;21432;-50
2022/09/27 05:28:42;;;;;;;12.23;10.72;;;;;;;12.70;100.00;98403.49;1699586;82;21763;-50
2022/09/27 05:31:08;;;;;;;20.25;11.80;;;;;;;12.71;100.00;98415.53;1699392;82;21017;-49
2022/09/27 05:33:35;;;;;;;13.60;12.28;;;;;;;12.73;100.00;98423.52;1689981;82;21095;-49
2022/09/27 05:36:22;;;;;;;13.28;12.07;;;;;;;12.74;100.00;98427.94;1697730;82;22326;-49
2022/09/27 05:38:49;;;;;;;12.70;11.03;;;;;;;12.69;100.00;98428.77;1694011;82;21094;-50
2022/09/27 05:41:15;;;;;;;13.13;11.88;;;;;;;12.68;100.00;98427.91;1689409;82;21008;-49
2022/09/27 05:43:42;;;;;;;14.45;11.83;;;;;;;12.68;100.00;98427.91;1690069;82;21104;-49
2022/09/27 05:46:08;;;;;;;12.50;11.20;;;;;;;12.71;100.00;98430.86;1687725;82;21759;-49
2022/09/27 05:48:37;;;;;;;14.87;12.13;;;;;;;12.71;100.00;98425.47;1687678;82;21851;-49
2022/09/27 05:51:05;;;;;;;13.65;11.65;;;;;;;12.74;100.00;98427.45;1684809;82;21090;-49
2022/09/27 05:53:31;;;;;;;13.30;12.00;;;;;;;12.76;100.00;98428.17;1686755;82;22015;-49
2022/09/27 05:56:03;;;;;;;25.25;13.13;;;;;;;12.78;100.00;98430.75;1683065;82;21538;-49
2022/09/27 05:58:33;;;;;;;14.73;12.33;;;;;;;12.79;100.00;98427.94;1685611;82;21151;-50
2022/09/27 06:01:14;;;;;;;17.20;12.45;;;;;;;12.83;100.00;98433.97;1686645;82;21750;-50
2022/09/27 06:03:48;;;;;;;13.25;11.93;;;;;;;12.84;100.00;98427.08;1655321;82;21122;-49
2022/09/27 06:06:29;;;;;;;24.60;13.75;;;;;;;12.86;100.00;98425.61;1680251;83;21192;-50
2022/09/27 06:08:56;;;;;;;17.67;12.55;;;;;;;12.88;100.00;98423.66;1748610;79;21763;-49
2022/09/27 06:11:26;;;;;;;19.67;12.15;;;;;;;12.89;100.00;98423.55;1754662;79;21007;-49
2022/09/27 06:13:54;;;;;;;21.42;13.75;;;;;;;12.92;100.00;98427.00;1754025;80;20888;-47
2022/09/27 06:16:20;;;;;;;23.07;13.58;;;;;;;12.93;100.00;98413.86;1695354;82;21071;-47
2022/09/27 06:18:46;;;;;;;20.57;13.43;;;;;;;12.95;100.00;98415.44;1750750;79;21335;-49
2022/09/27 06:21:13;;;;;;;20.25;14.95;;;;;;;12.97;100.00;98416.67;1753967;79;20922;-49
2022/09/27 06:23:41;;;;;;;22.27;15.05;;;;;;;12.99;100.00;98412.88;1755396;79;20942;-46
2022/09/27 06:26:15;;;;;;;24.35;14.93;;;;;;;13.00;100.00;98413.74;1751902;80;21417;-47
2022/09/27 06:28:44;;;;;;;17.48;15.23;;;;;;;13.02;100.00;98412.62;1729254;79;21397;-48
2022/09/27 06:31:10;;;;;;;24.37;16.35;;;;;;;13.02;100.00;98409.92;1754489;79;21105;-47
2022/09/27 06:33:41;;;;;;;19.92;14.18;;;;;;;13.04;100.00;98419.25;1733861;79;21002;-47
2022/09/27 06:36:08;;;;;;;18.23;13.90;;;;;;;13.04;100.00;98416.06;1694890;82;21028;-48
2022/09/27 06:38:36;;;;;;;23.12;14.33;;;;;;;13.05;100.00;98415.58;1742775;79;21144;-45
2022/09/27 06:41:17;;;;;;;22.27;13.53;;;;;;;13.06;100.00;98424.05;1752141;79;21036;-46
2022/09/27 06:43:55;;;;;;;60.25;20.95;;;;;;;13.06;100.00;98425.41;1751558;80;21335;-47
2022/09/27 06:46:41;;;;;;;27.87;13.75;;;;;;;13.05;100.00;98412.38;1749566;79;21896;-47
2022/09/27 06:49:10;;;;;;;25.40;13.58;;;;;;;13.03;100.00;98419.74;1754769;79;20963;-48
2022/09/27 06:51:38;;;;;;;23.05;12.73;;;;;;;13.04;100.00;98411.15;1756533;79;21016;-47
2022/09/27 06:54:07;;;;;;;21.87;13.80;;;;;;;13.05;100.00;98406.12;1751356;80;20898;-47
2022/09/27 06:56:33;;;;;;;22.13;14.45;;;;;;;13.07;100.00;98406.86;1752689;80;21105;-49
2022/09/27 07:01:45;;;;;;;22.90;13.72;;;;;;;13.07;100.00;98398.77;1750954;80;21124;-47
2022/09/27 07:04:16;;;;;;;22.15;12.18;;;;;;;13.07;100.00;98405.03;1753665;79;21138;-49
2022/09/27 07:06:54;;;;;;;21.82;12.28;;;;;;;13.08;100.00;98407.23;1720431;79;21080;-46
2022/09/27 07:09:22;;;;;;;20.12;13.00;;;;;;;13.08;100.00;98407.23;1750653;79;21161;-47
2022/09/27 07:11:49;;;;;;;23.83;13.13;;;;;;;13.08;100.00;98413.99;1747484;79;21013;-49
2022/09/27 07:14:16;;;;;;;19.20;12.88;;;;;;;13.10;100.00;98411.52;1747888;79;21069;-49
2022/09/27 07:16:44;;;;;;;26.25;15.70;;;;;;;13.13;100.00;98413.13;1750202;79;21112;-48
2022/09/27 07:19:13;;;;;;;27.07;12.93;;;;;;;13.15;100.00;98421.52;1731074;79;21057;-50
2022/09/27 07:21:40;;;;;;;22.00;13.08;;;;;;;13.16;100.00;98415.63;1748450;79;21191;-47
2022/09/27 07:24:06;;;;;;;21.45;13.05;;;;;;;13.18;100.00;98415.84;1748999;79;21061;-48
2022/09/27 07:26:33;;;;;;;22.52;13.40;;;;;;;13.20;100.00;98415.73;1753885;79;21302;-48
2022/09/27 07:29:00;;;;;;;25.20;14.23;;;;;;;13.23;100.00;98418.20;1753352;79;21097;-49
2022/09/27 07:31:28;;;;;;;20.45;13.28;;;;;;;13.26;100.00;98419.31;1755662;79;21069;-49
2022/09/27 07:33:55;;;;;;;20.05;12.85;;;;;;;13.30;100.00;98420.77;1752273;79;21204;-49
2022/09/27 07:36:22;;;;;;;18.12;11.35;;;;;;;13.32;100.00;98409.84;1754547;79;21045;-50
2022/09/27 07:38:50;;;;;;;22.50;12.45;;;;;;;13.36;100.00;98405.90;1749427;79;21066;-47
2022/09/27 07:41:19;;;;;;;25.35;14.60;;;;;;;13.39;100.00;98400.25;1752210;79;21085;-48
2022/09/27 07:43:45;;;;;;;20.27;13.60;;;;;;;13.45;100.00;98403.80;1751815;79;22624;-47
2022/09/27 07:46:13;;;;;;;20.57;12.55;;;;;;;13.49;100.00;98391.28;1748846;79;21547;-47
2022/09/27 07:48:45;;;;;;;22.70;13.85;;;;;;;13.52;100.00;98397.80;1753171;79;21053;-48
2022/09/27 07:51:30;;;;;;;22.27;12.45;;;;;;;13.55;100.00;98392.61;1751060;79;21038;-48
2022/09/27 07:54:00;;;;;;;18.25;12.28;;;;;;;13.55;100.00;98384.02;1753032;79;21042;-49
2022/09/27 07:56:35;;;;;;;20.45;13.43;;;;;;;13.58;100.00;98382.42;1756093;79;21316;-47
2022/09/27 07:59:03;;;;;;;18.92;12.18;;;;;;;13.60;100.00;98384.52;1755483;79;21144;-50
2022/09/27 08:01:29;;;;;;;21.50;12.37;;;;;;;13.61;100.00;98388.05;1753966;79;21406;-49
2022/09/27 08:03:57;;;;;;;15.50;9.90;;;;;;;13.63;100.00;98387.44;1688988;83;21123;-48
2022/09/27 08:06:24;;;;;;;21.23;10.63;;;;;;;13.63;100.00;98392.35;1754240;79;21123;-51
2022/09/27 08:08:50;;;;;;;13.62;10.23;;;;;;;13.66;100.00;98391.74;1738957;80;21116;-47
2022/09/27 08:11:17;;;;;;;19.80;11.15;;;;;;;13.68;100.00;98383.88;1753283;79;21727;-49
2022/09/27 08:13:45;;;;;;;18.48;10.63;;;;;;;13.71;100.00;98379.55;1755325;79;21547;-47
2022/09/27 08:16:13;;;;;;;15.98;10.65;;;;;;;13.73;100.00;98378.08;1752305;79;21042;-47
2022/09/27 08:18:57;;;;;;;12.15;9.90;;;;;;;13.76;100.00;98379.19;1754332;79;20979;-48
2022/09/27 08:21:27;;;;;;;11.70;9.88;;;;;;;13.79;100.00;98381.12;1737526;79;21096;-50
2022/09/27 08:23:58;;;;;;;11.80;9.15;;;;;;;13.81;100.00;98380.52;1751113;79;21477;-51
2022/09/27 08:26:29;;;;;;;13.03;9.33;;;;;;;13.84;100.00;98379.41;1737291;80;21089;-49
2022/09/27 08:29:13;;;;;;;12.90;8.83;;;;;;;13.85;100.00;98380.64;1756351;79;21051;-48
2022/09/27 08:31:41;;;;;;;8.83;7.42;;;;;;;13.87;100.00;98382.70;1749532;79;21158;-47
2022/09/27 08:34:08;;;;;;;9.93;7.62;;;;;;;13.89;100.00;98383.93;1750252;79;21253;-48
2022/09/27 08:36:36;;;;;;;8.00;6.45;;;;;;;13.91;100.00;98386.88;1750228;79;22469;-49
2022/09/27 08:39:04;;;;;;;7.28;6.60;;;;;;;13.91;100.00;98378.77;1755308;80;21063;-46
2022/09/27 08:41:40;;;;;;;8.05;6.83;;;;;;;13.95;100.00;98382.09;1754529;79;21105;-49
2022/09/27 08:44:30;;;;;;;7.45;5.47;;;;;;;13.96;100.00;98379.23;1758692;79;21065;-48
2022/09/27 08:47:36;;;;;;;8.25;6.35;;;;;;;14.00;100.00;98377.14;1754594;79;21104;-47
2022/09/27 08:50:14;;;;;;;7.33;6.70;;;;;;;14.02;100.00;98377.87;1755299;80;21313;-49
2022/09/27 08:52:48;;;;;;;7.05;5.92;;;;;;;14.06;100.00;98382.03;1753728;80;21097;-47
2022/09/27 08:55:31;;;;;;;6.85;6.25;;;;;;;14.07;100.00;98379.69;1727899;80;21718;-50
2022/09/27 08:57:58;;;;;;;6.70;6.03;;;;;;;14.11;100.00;98377.59;1753422;79;21108;-50
2022/09/27 09:00:28;;;;;;;8.28;6.67;;;;;;;14.13;100.00;98366.12;1753217;79;21540;-48
2022/09/27 09:02:56;;;;;;;6.67;6.12;;;;;;;14.16;100.00;98372.16;1757858;80;22452;-47
2022/09/27 09:05:32;;;;;;;6.22;5.67;;;;;;;14.21;100.00;98383.44;1744521;80;21432;-48
2022/09/27 09:08:15;;;;;;;6.30;5.70;;;;;;;14.26;100.00;98372.23;1757713;79;20938;-47
2022/09/27 09:14:04;;;;;;;6.67;5.80;;;;;;;14.36;100.00;98372.68;1761716;79;21813;-47
2022/09/27 09:17:10;;;;;;;7.15;6.53;;;;;;;14.43;100.00;98365.41;1743329;80;21219;-49
2022/09/27 09:19:47;;;;;;;9.08;6.83;;;;;;;14.45;100.00;98362.95;1760277;79;21334;-50
2022/09/27 09:22:49;;;;;;;;;;;;;;;14.49;100.00;98360.81;1761405;79;20946;-49
2022/09/27 09:25:30;;;;;;;7.25;5.97;;;;;;;14.50;100.00;98362.53;1728378;79;20168;-48
2022/09/27 09:28:17;;;;;;;6.25;5.65;;;;;;;14.52;100.00;98361.92;1762739;80;21671;-50
2022/09/27 09:31:07;;;;;;;6.58;5.72;;;;;;;14.53;100.00;98363.14;1754164;79;22179;-50
2022/09/27 09:33:42;;;;;;;6.67;6.00;;;;;;;14.54;100.00;98362.66;1756996;79;21261;-48
2022/09/27 09:36:32;;;;;;;6.25;5.83;;;;;;;14.54;100.00;98359.95;1762565;79;20998;-47
2022/09/27 09:39:04;;;;;;;6.40;5.12;;;;;;;14.54;100.00;98360.80;1759286;79;20910;-48
2022/09/27 09:41:38;;;;;;;7.33;6.03;;;;;;;14.56;100.00;98368.77;1758570;79;21042;-50
2022/09/27 09:44:15;;;;;;;6.53;5.50;;;;;;;14.55;100.00;98363.84;1741050;79;21299;-47
2022/09/27 09:46:45;;;;;;;5.67;5.28;;;;;;;14.57;100.00;98359.66;1760283;79;21037;-46
2022/09/27 09:49:41;;;;;;;5.92;5.20;;;;;;;14.57;100.00;98356.95;1759219;80;21298;-49
2022/09/27 09:52:15;;;;;;;5.45;4.97;;;;;;;14.57;100.00;98364.58;1757967;79;21105;-48
2022/09/27 09:54:56;;;;;;;6.65;6.15;;;;;;;14.57;100.00;98367.29;1758814;79;21068;-50
2022/09/27 09:57:28;;;;;;;6.28;5.85;;;;;;;14.58;100.00;98365.44;1756424;79;21229;-50
2022/09/27 10:00:06;;;;;;;5.30;4.90;;;;;;;14.60;100.00;98363.47;1759460;79;21068;-49
2022/09/27 10:02:42;;;;;;;5.60;5.20;;;;;;;14.61;100.00;98364.70;1750320;79;21085;-50
2022/09/27 10:05:17;;;;;;;6.33;5.65;;;;;;;14.64;100.00;98366.25;1762179;79;21053;-50
2022/09/27 10:07:46;;;;;;;5.78;5.37;;;;;;;14.65;100.00;98359.85;1760234;79;22109;-48
2022/09/27 10:10:15;;;;;;;6.75;6.05;;;;;;;14.67;100.00;98364.64;1754824;79;21490;-49
2022/09/27 10:12:44;;;;;;;5.67;5.17;;;;;;;14.69;100.00;98358.61;1759059;79;21070;-49
2022/09/27 10:15:24;;;;;;;7.50;6.00;;;;;;;14.72;100.00;98365.09;1696927;82;21126;-47
2022/09/27 10:17:55;;;;;;;6.80;6.30;;;;;;;14.74;100.00;98364.47;1757773;79;21096;-48
2022/09/27 10:20:44;;;;;;;5.30;5.00;;;;;;;14.78;100.00;98363.23;1760596;79;21672;-49
2022/09/27 10:23:20;;;;;;;5.60;5.28;;;;;;;14.79;100.00;98362.23;1697756;82;21439;-48
2022/09/27 10:26:07;;;;;;;5.05;4.72;;;;;;;14.81;100.00;98358.02;1758811;79;21065;-48
2022/09/27 10:28:44;;;;;;;6.55;5.25;;;;;;;14.82;100.00;98361.95;1761471;79;22570;-48
2022/09/27 10:31:17;;;;;;;5.10;4.72;;;;;;;14.84;100.00;98358.62;1755569;79;21111;-47
2022/09/27 10:33:58;;;;;;;5.55;5.15;;;;;;;14.87;100.00;98352.08;1761261;79;21103;-47
2022/09/27 10:36:32;;;;;;;5.05;4.67;;;;;;;14.88;100.00;98353.31;1761315;79;21560;-48
2022/09/27 10:39:00;;;;;;;6.50;6.10;;;;;;;14.91;100.00;98349.45;1759891;79;21357;-49
2022/09/27 10:41:37;;;;;;;6.35;5.85;;;;;;;14.91;100.00;98360.29;1748385;79;21042;-50
2022/09/27 10:44:19;;;;;;;5.47;5.17;;;;;;;14.92;100.00;98353.88;1752860;79;21518;-47
2022/09/27 10:46:53;;;;;;;6.95;6.45;;;;;;;14.94;100.00;98355.97;1748044;79;21508;-48
2022/09/27 10:49:36;;;;;;;7.20;6.72;;;;;;;14.96;100.00;98348.56;1749260;80;21338;-48
2022/09/27 10:52:18;;;;;;;7.33;6.83;;;;;;;14.96;100.00;98350.78;1751160;79;21062;-47
2022/09/27 10:54:59;;;;;;;8.83;8.15;;;;;;;14.94;100.00;98350.05;1755008;79;21049;-51
2022/09/27 10:57:28;;;;;;;8.20;7.62;;;;;;;14.92;100.00;98347.97;1747405;79;21045;-47
2022/09/27 11:00:06;;;;;;;8.20;7.62;;;;;;;14.91;100.00;98339.47;1744565;79;20924;-49
2022/09/27 11:02:36;;;;;;;8.95;8.20;;;;;;;14.91;100.00;98334.55;1750381;79;21121;-47
2022/09/27 11:05:14;;;;;;;8.60;7.72;;;;;;;14.91;100.00;98341.33;1754833;79;21631;-48
2022/09/27 11:07:49;;;;;;;11.70;9.33;;;;;;;14.88;100.00;98330.28;1755360;79;21054;-47
2022/09/27 11:10:34;;;;;;;10.20;8.08;;;;;;;14.88;100.00;98321.30;1746711;79;22471;-47
2022/09/27 11:13:18;;;;;;;8.75;7.95;;;;;;;14.88;100.00;98323.52;1751725;79;21078;-48
2022/09/27 11:16:17;;;;;;;10.60;9.73;;;;;;;14.85;100.00;98321.06;1745914;79;21115;-47
2022/09/27 11:19:16;;;;;;;10.50;9.60;;;;;;;14.85;100.00;98301.23;1747793;79;21192;-48
2022/09/27 11:21:48;;;;;;;10.32;9.55;;;;;;;14.84;100.00;98290.89;1752329;79;21088;-49
2022/09/27 11:24:53;;;;;;;8.85;8.10;;;;;;;14.82;100.00;98306.42;1746013;79;22039;-48
2022/09/27 11:28:13;;;;;;;9.15;8.43;;;;;;;14.86;100.00;98302.95;1746249;79;22334;-50
2022/09/27 11:31:02;;;;;;;10.15;9.03;;;;;;;14.90;100.00;98315.22;1746387;79;21711;-47
2022/09/27 11:34:01;;;;;;;11.22;10.32;;;;;;;14.93;100.00;98321.23;1737986;79;21025;-47
2022/09/27 11:37:08;;;;;;;12.93;11.43;;;;;;;14.97;100.00;98319.13;1749722;79;21141;-48
2022/09/27 11:40:01;;;;;;;11.08;10.08;;;;;;;15.03;100.00;98310.45;1732357;80;21370;-48
2022/09/27 11:42:55;;;;;;;11.12;10.00;;;;;;;15.06;100.00;98312.86;1736235;80;26790;-49
2022/09/27 11:45:56;;;;;;;10.93;9.88;;;;;;;15.08;100.00;98314.95;1731698;80;21121;-51
2022/09/27 11:49:06;;;;;;;11.65;10.63;;;;;;;15.12;100.00;98317.27;1754096;79;21093;-48
2022/09/27 11:51:54;;;;;;;11.05;10.03;;;;;;;15.18;100.00;98317.70;1737100;80;21528;-50
2022/09/27 11:54:58;;;;;;;18.87;15.40;;;;;;;15.20;100.00;98319.28;1750766;79;20911;-50
2022/09/27 11:57:32;;;;;;;19.85;15.93;;;;;;;15.23;100.00;98316.27;1754591;79;21389;-47
2022/09/27 12:00:24;;;;;;;21.80;16.93;;;;;;;15.27;100.00;98314.16;1751065;79;21286;-48
2022/09/27 12:03:19;;;;;;;19.27;16.67;;;;;;;15.27;100.00;98304.67;1750039;79;21034;-47